Jacques Jacob — ZDKG7 — position and weather

sailwx.info

Track history (hours):
 
Tides and Currents Weather Stations Pressure Air Temp Water Temp Dewpoint Dewpoint Depression Visibility Wind Speed Wind Dir Waves Ship Positions

Jacques Jacob

Last reported at 2016-Feb-09 06:34 UTC. Time now 2016-Feb-09 07:28 UTC.
Position N 34°28' E 033°23'.

Length 228 m; draft 13.5 m.

Type: Tanker. MMSI: 236612000.

Date/timePositionNaut miles runAvg speedWind from/ knotsBaromVisibWave heightAir tempDewpointWater temp
2016-Feb-09 06:34N 34°28' E 033°23'1 0.5
2016-Feb-09 05:31N 34°28' E 033°23'1 0.5
2016-Feb-09 04:29N 34°28' E 033°24'2 0.3
2016-Feb-08 20:14N 34°26' E 033°26'4 5.2
2016-Feb-08 19:32N 34°28' E 033°22'4 3.5
2016-Feb-08 18:18N 34°28' E 033°17'12 6.8
2016-Feb-08 16:33N 34°20' E 033°07'1211.6
2016-Feb-08 15:34N 34°20' E 032°53'  
2016-Feb-05 14:23N 36°01' E 014°46'1011.6
2016-Feb-05 13:33N 35°59' E 014°34'7 6.6
2016-Feb-05 12:34N 36°05' E 014°30'1312.9
2016-Feb-05 11:34N 36°10' E 014°15'1313.2
2016-Feb-05 10:34N 36°16' E 014°01'1313.1
2016-Feb-05 09:33N 36°21' E 013°46'62212.2
2016-Feb-03 06:32N 36°51' E 000°52'1313.0
2016-Feb-03 05:33N 36°48' E 000°36'1313.3
2016-Feb-03 04:33N 36°45' E 000°20'1414.1
2016-Feb-03 03:32N 36°43' E 000°02'1714.4
2016-Feb-03 02:22N 36°39' W 000°18'1214.8
2016-Feb-03 01:31N 36°37' W 000°34'1413.8
2016-Feb-03 00:33N 36°35' W 000°50'20913.5
2016-Feb-02 09:05N 36°06' W 005°07'712.6
2016-Feb-02 08:33N 36°07' W 005°15'7 6.6
2016-Feb-02 07:33N 36°06' W 005°23'1 0.1
2016-Feb-01 14:33N 36°05' W 005°22'7 7.2
2016-Feb-01 13:33N 35°58' W 005°25'1813.1
2016-Feb-01 12:13N 35°55' W 005°47'  
Track history (hours):
 
Tides and Currents Weather Stations Pressure Air Temp Water Temp Dewpoint Dewpoint Depression Visibility Wind Speed Wind Dir Waves Ship Positions

Jacques Jacob

Last reported at 2016-Feb-09 06:34 UTC. Time now 2016-Feb-09 07:28 UTC.
Position N 34°28' E 033°23'.

Length 228 m; draft 13.5 m.

Type: Tanker. MMSI: 236612000.

Date/timePositionNaut miles runAvg speedWind from/ knotsBaromVisibWave heightAir tempDewpointWater temp
2016-Feb-09 06:34N 34°28' E 033°23'1 0.5
2016-Feb-09 05:31N 34°28' E 033°23'1 0.5
2016-Feb-09 04:29N 34°28' E 033°24'2 0.3
2016-Feb-08 20:14N 34°26' E 033°26'4 5.2
2016-Feb-08 19:32N 34°28' E 033°22'4 3.5
2016-Feb-08 18:18N 34°28' E 033°17'12 6.8
2016-Feb-08 16:33N 34°20' E 033°07'1211.6
2016-Feb-08 15:34N 34°20' E 032°53'  
2016-Feb-05 14:23N 36°01' E 014°46'1011.6
2016-Feb-05 13:33N 35°59' E 014°34'7 6.6
2016-Feb-05 12:34N 36°05' E 014°30'1312.9
2016-Feb-05 11:34N 36°10' E 014°15'1313.2
2016-Feb-05 10:34N 36°16' E 014°01'1313.1
2016-Feb-05 09:33N 36°21' E 013°46'62212.2
2016-Feb-03 06:32N 36°51' E 000°52'1313.0
2016-Feb-03 05:33N 36°48' E 000°36'1313.3
2016-Feb-03 04:33N 36°45' E 000°20'1414.1
2016-Feb-03 03:32N 36°43' E 000°02'1714.4
2016-Feb-03 02:22N 36°39' W 000°18'1214.8
2016-Feb-03 01:31N 36°37' W 000°34'1413.8
2016-Feb-03 00:33N 36°35' W 000°50'20913.5
2016-Feb-02 09:05N 36°06' W 005°07'712.6
2016-Feb-02 08:33N 36°07' W 005°15'7 6.6
2016-Feb-02 07:33N 36°06' W 005°23'1 0.1
2016-Feb-01 14:33N 36°05' W 005°22'7 7.2
2016-Feb-01 13:33N 35°58' W 005°25'1813.1
2016-Feb-01 12:13N 35°55' W 005°47'  

Dump ship's entire track history